Dragor, Denmark
Current Conditions -  °F | °C
As of 12:50 PM on Wednesday 28 Jan 2015 (Local Time) from EKCH Reporting Station
Overcast Overcast  
Wind Chill: 29°   Ceiling: 700
Heat Index: 39°   Visibility: 5mi
Dew Point: 37°   Wind: 21mph
Humidity: 93%   Direction: 190°S
Pressure: 29.5"   Gusts: NA
Location:  55.59°N, 12.67°E
Report Text: EKCH 281150Z 19018KT 8000 OVC007 04/03 Q0999 BECMG BKN010
Loading
Personal Weather Stations






























Interactive Weather Map New forecast layout! Learn more

10-Day Weather Forecast

Advertisements
Track Severe Weather on mobile